新千歳空港の過去48時間の天気

新千歳空港 (Sapporo/New Chitose)

現在時刻: 4/24 21:18 JST (4/24 12:18 UTC) 以下の時間は現地時間です。

過去48時間のMETAR気象情報
時間 風向 風速(m/s) 視程 気温(℃) 湿度(%) 気圧(hPa) 天気現象
24 21:00 2 10km以上 9 76 1015
24 20:30 不定 1 10km以上 9 81 1015
24 20:00 不定 1 10km以上 9 81 1015
24 19:30 不定 1 10km以上 10 76 1015
24 19:00 不定 1 10km以上 10 76 1015
24 18:30 西南西 2 10km以上 10 76 1014
24 18:00 西 2 10km以上 10 76 1014
24 17:30 西 4 10km以上 11 67 1014
24 17:00 西 4 10km以上 11 71 1015
24 16:30 西 3 10km以上 11 71 1015
24 16:00 北北西 2 10km以上 11 71 1015
24 15:30 北北西 3 10km以上 11 67 1015
24 15:00 北西 2 10km以上 11 71 1016
24 14:30 西 2 10km以上 10 76 1016
24 14:00 西 2 10km以上 10 76 1016
24 13:30 西 3 10km以上 10 71 1017
24 13:00 西 3 10km以上 10 71 1017
24 12:30 西南西 2 10km以上 10 66 1017
24 12:00 西南西 3 10km以上 10 66 1018
24 11:30 南南東 2 10km以上 10 66 1018
24 11:00 南東 3 10km以上 10 62 1019
24 10:30 南南東 3 10km以上 9 71 1019
24 10:00 3 10km以上 9 76 1020
24 09:30 南南西 3 10km以上 8 81 1020
24 09:00 不定 1 10km以上 7 87 1020
24 08:30 2 10km以上 7 87 1021 弱いしゅう雨 もや
24 08:00 南西 2 10km以上 6 93 1021 弱いしゅう雨 もや
24 07:30 南西 1 8,000m 6 93 1021 弱いしゅう雨 もや
24 07:00 不定 1 10km以上 5 93 1021 弱いしゅう雨 部分霧 もや
24 06:30 不定 1 10km以上 4 93 1021 部分霧
24 06:00 不定 1 10km以上 4 87 1021 部分霧
24 05:30 不定 1 10km以上 2 100 1021 部分霧
24 05:00 不定 1 8,000m 1 100 1021 部分霧
24 04:30 不定 1 8,000m 1 93 1022 散在した霧
24 04:00 南東 1 10km以上 0 100 1022 部分霧
24 03:30 不定 1 10km以上 0 100 1022 部分霧
24 03:00 南南東 2 8,000m 1 93 1023 散在した霧
24 02:30 南南東 2 8,000m 0 100 1023 散在した霧
24 02:00 南東 1 10km以上 0 100 1023 部分霧
24 01:30 2 10km以上 1 100 1023 部分霧
24 01:00 不定 1 10km以上 1 100 1023 部分霧
24 00:30 2 8,000m 1 100 1024 部分霧
24 00:00 2 8,000m 2 93 1024 散在した霧
23 23:30 南南東 1 8,000m 2 100 1024 部分霧
23 23:00 東南東 1 8,000m 3 93 1024 部分霧
23 22:30 2 8,000m 3 93 1025
23 21:30 2 7,000m 3 100 1025
23 21:00 2 7,000m 4 93 1025
23 20:30 2 8,000m 4 100 1025
23 20:00 3 8,000m 5 93 1025
23 19:30 4 7,000m 5 93 1025
23 19:00 南南東 4 8,000m 5 93 1025
23 18:30 南南東 5 10km以上 5 93 1025
23 18:00 6 10km以上 6 87 1025
23 17:30 6 10km以上 6 87 1024
23 17:00 6 10km以上 7 81 1024
23 16:30 7 10km以上 7 81 1024
23 16:00 7 10km以上 9 71 1024
23 15:30 8 10km以上 10 58 1024
23 15:00 7 10km以上 10 50 1024
23 14:30 7 10km以上 11 50 1024
23 14:00 7 10km以上 11 54 1024
23 13:30 7 10km以上 11 54 1025
23 13:00 7 10km以上 11 50 1025
23 12:30 7 10km以上 12 50 1025
23 12:00 6 10km以上 13 47 1025
23 11:30 6 10km以上 12 50 1026
23 11:00 5 10km以上 12 50 1026
23 10:30 南南東 5 10km以上 12 50 1026
23 10:00 5 10km以上 11 50 1026
23 09:30 5 10km以上 11 50 1026
23 09:00 5 10km以上 11 50 1027
23 08:30 南南東 4 10km以上 9 57 1027
23 08:00 5 10km以上 8 61 1027
23 07:30 南南東 4 10km以上 7 70 1027
23 07:00 南南東 2 10km以上 5 81 1027
23 06:30 南東 2 10km以上 4 87 1027
23 06:00 南南東 2 10km以上 2 93 1027 散在した霧
23 05:42 南南東 2 10km以上 1 100 1027 散在した霧
23 05:30 南南東 2 10km以上 1 93 1026 散在した霧
23 05:25 南南東 2 10km以上 1 93 1026 部分霧
23 05:00 南東 1 10km以上 0 100 1026 部分霧
23 04:30 南東 1 10km以上 1 100 1026 部分霧
23 04:00 東南東 1 10km以上 2 93 1026
23 03:30 東南東 2 10km以上 2 93 1026
23 03:00 南南東 3 10km以上 3 93 1025
23 02:30 南南東 3 10km以上 4 87 1025
23 02:00 南南東 4 10km以上 4 93 1025
23 01:30 3 10km以上 4 93 1025
23 01:00 3 10km以上 4 93 1025
23 00:30 2 10km以上 4 93 1025
23 00:00 南南東 2 8,000m 3 93 1025
22 23:30 南南東 2 10km以上 4 93 1025
22 23:00 南南東 2 10km以上 4 87 1024
22 22:30 不定 1 10km以上 4 93 1024
22 22:00 南東 2 10km以上 5 87 1024
22 21:30 南東 2 10km以上 5 87 1024
RJCC 241200Z 18003KT 160V240 9999 FEW010 BKN090 09/05 Q1015 RMK 1ST010 7AC090 A2997
RJCC 241130Z VRB02KT 9999 FEW010 BKN080 09/06 Q1015 RMK 1ST010 7AC080 A2998
RJCC 241100Z VRB02KT 9999 FEW010 SCT060 BKN080 09/06 Q1015 RMK 1ST010 3SC060 7AC080 A2998
RJCC 241030Z VRB01KT 9999 FEW010 BKN060 BKN080 10/06 Q1015 RMK 1ST010 5CU060 7AC080 A2998
RJCC 241000Z VRB02KT 9999 FEW010 BKN060 BKN080 10/06 Q1015 RMK 1ST010 5CU060 7AC080 A2997
RJCC 240930Z 24003KT 200V270 9999 FEW010 BKN060 BKN080 10/06 Q1014 RMK 1ST010 5CU060 7AC080 A2996
RJCC 240900Z 26004KT 9999 FEW010 BKN050 10/06 Q1014 RMK 1ST010 7CU050 A2996
RJCC 240830Z 27007KT 250V010 9999 FEW015 BKN050 11/05 Q1014 RMK 1ST015 7CU050 A2996
RJCC 240800Z 27007KT 9999 FEW010 BKN050 11/06 Q1015 RMK 1ST010 7CU050 A2997
RJCC 240730Z 26005KT 9999 FEW010 SCT045 BKN050 11/06 Q1015 RMK 1ST010 4CU045 7CU050 A2998
RJCC 240700Z 34004KT 9999 FEW010 SCT025 BKN045 11/06 Q1015 RMK 1ST010 3CU025 5CU045 A2999
RJCC 240630Z 33005KT 280V010 9999 FEW010 BKN025 BKN050 11/05 Q1015 RMK 1ST010 5CU025 7CU050 A3000
RJCC 240600Z 32004KT 250V010 9999 FEW010 BKN025 BKN050 11/06 Q1016 RMK 1ST010 5CU025 7CU050 A3000
RJCC 240530Z 26003KT 210V310 9999 FEW010 BKN025 BKN050 10/06 Q1016 RMK 1ST010 5CU025 7CU050 A3001
RJCC 240500Z 26003KT 210V300 9999 FEW010 BKN025 10/06 Q1016 RMK 1ST010 7CU025 A3002
RJCC 240430Z 26006KT 200V300 9999 FEW010 BKN020 BKN030 10/05 Q1017 RMK 1ST010 5CU020 7CU030 A3003
RJCC 240400Z 26006KT 230V300 9999 FEW010 BKN020 BKN030 10/05 Q1017 RMK 1ST010 6CU020 7CU030 A3005
RJCC 240330Z 24004KT 210V290 9999 FEW015 BKN020 BKN030 10/04 Q1017 RMK 1ST015 6CU020 7CU030 A3006
RJCC 240300Z 25005KT 210V290 9999 FEW010 BKN020 BKN030 10/04 Q1018 RMK 1ST010 6CU020 7CU030 A3007
RJCC 240230Z 16003KT 110V220 9999 FEW010 BKN020 BKN030 10/04 Q1018 RMK 1ST010 5CU020 7CU030 A3008
RJCC 240200Z 14006KT 9999 FEW010 BKN025 BKN035 10/03 Q1019 RMK 1ST010 5CU025 7CU035 A3010
RJCC 240130Z 15006KT 9999 FEW010 BKN025 BKN035 09/04 Q1019 RMK 1ST010 5CU025 7CU035 A3011
RJCC 240100Z 18005KT 150V210 9999 FEW010 BKN035 09/05 Q1020 RMK 1ST010 7CU035 A3013
RJCC 240030Z 20005KT 9999 FEW010 BKN030 08/05 Q1020 RMK 1ST010 7CU030 A3014
RJCC 240000Z VRB02KT 9999 FEW010 SCT018 BKN030 07/05 Q1020 RMK 1ST010 3ST018 7CU030 A3014
RJCC 232330Z 19004KT 9999 -SHRA BR FEW010 SCT018 BKN025 07/05 Q1021 RMK 1ST010 3ST018 7CU025 A3015 5000W
RJCC 232300Z 22004KT 9999 -SHRA BR FEW010 BKN018 BKN025 06/05 Q1021 RMK 1ST010 5ST018 7CU025 A3016 4500W
RJCC 232230Z 22002KT 8000 -SHRA BR FEW010 SCT018 BKN020 06/05 Q1021 RMK 1ST010 3ST018 7CU020 A3016 4000W
RJCC 232200Z VRB02KT 9999 -SHRA PRFG BR FEW010 BKN020 BKN030 05/04 Q1021 RMK 1ST010 6CU020 7CU030 A3016 5000W FG NE-SE
RJCC 232130Z VRB02KT 9999 PRFG FEW010 BKN020 BKN030 04/03 Q1021 RMK 1ST010 5CU020 7CU030 A3017 FG NE-SE
RJCC 232100Z VRB01KT 9999 PRFG FEW010 SCT020 BKN025 04/02 Q1021 RMK 1ST010 4CU020 7CU025 A3017 FG NE-SE
RJCC 232030Z VRB01KT 9999 PRFG FEW010 BKN025 02/02 Q1021 RMK 1ST010 7CU025 A3017 FG NE-SE
RJCC 232000Z VRB02KT 8000 PRFG FEW005 BKN025 01/01 Q1021 RMK 1ST005 7CU025 A3018 FG NE-SE
RJCC 231930Z VRB01KT 8000 BCFG FEW005 BKN025 BKN/// 01/00 Q1022
RJCC 231900Z 13001KT 9999 PRFG FEW005 BKN/// 00/00 Q1022 RMK 1ST005 A3019 FG NE-E
RJCC 231830Z VRB01KT 9999 R01L/P2000N R01R/P2000N PRFG FEW003 BKN/// 00/00 Q1022
RJCC 231800Z 16003KT 8000 R19R/P2000N R19L/0550VP2000U BCFG FEW002 BKN/// 01/00 Q1023
RJCC 231730Z 16003KT 8000 R19R/P2000N R19L/0900N BCFG FEW003 BKN/// 00/00 Q1023 RMK 1ST003 A3021
RJCC 231700Z 13002KT 9999 R19R/P2000N R19L/2000N PRFG FEW003 BKN/// 00/00 Q1023 RMK 2ST003 A3022 FG NE-SE
RJCC 231630Z 08003KT 9999 R19R/1400VP2000U R19L/0700VP2000U PRFG FEW006 BKN/// 01/01 Q1023
RJCC 231600Z VRB02KT 9999 PRFG FEW006 BKN/// 01/01 Q1023 RMK 1ST006 A3023 FG NE
RJCC 231530Z 19003KT 8000 R19R/P2000N R19L/P2000N PRFG FEW006 OVC/// 01/01 Q1024
RJCC 231500Z 19003KT 8000 R19R/P2000N R19L/0400VP2000U BCFG FEW003 OVC/// 02/01 Q1024 RMK 2ST003 A3026
RJCC 231430Z 16001KT 8000 R01L/P2000N R01R/P2000N PRFG FEW005 OVC/// 02/02 Q1024
RJCC 231400Z 12001KT 8000 R19R/P2000N R19L/1600VP2000N PRFG FEW005 OVC/// 03/02 Q1024
RJCC 231330Z 17003KT 8000 FEW005 OVC/// 03/02 Q1025
RJCC 231230Z 17003KT 7000 FEW008 OVC/// 03/03 Q1025
RJCC 231200Z 18004KT 7000 FEW008 OVC/// 04/03 Q1025
RJCC 231130Z 19004KT 8000 FEW005 BKN/// 04/04 Q1025 RMK 1ST005 A3028
RJCC 231100Z 18006KT 8000 FEW005 BKN/// 05/04 Q1025
RJCC 231030Z 17007KT 7000 FEW005 SCT007 BKN/// 05/04 Q1025
RJCC 231000Z 15007KT 8000 FEW006 SCT007 BKN/// 05/04 Q1025 RMK 1ST006 3ST007 A3028
RJCC 230930Z 16009KT 9999 FEW006 BKN/// 05/04 Q1025
RJCC 230900Z 17011KT 9999 FEW006 SCT008 BKN/// 06/04 Q1025
RJCC 230830Z 17011KT 9999 FEW007 BKN/// 06/04 Q1024
RJCC 230800Z 17012KT 9999 FEW007 BKN/// 07/04 Q1024
RJCC 230730Z 17014KT 9999 FEW007 BKN/// 07/04 Q1024
RJCC 230700Z 17013KT 9999 FEW010 BKN/// 09/04 Q1024 RMK 1ST010 A3025
RJCC 230630Z 18015KT 9999 FEW015 BKN/// 10/02 Q1024
RJCC 230600Z 17014KT 9999 FEW015 BKN/// 10/00 Q1024
RJCC 230530Z 17013KT 9999 FEW015 BKN/// 11/01 Q1024
RJCC 230500Z 17013KT 9999 FEW015 BKN/// 11/02 Q1024 RMK 1ST015 A3026
RJCC 230430Z 18013KT 140V210 9999 FEW030 BKN/// 11/02 Q1025
RJCC 230400Z 18013KT 9999 FEW030 BKN/// 11/01 Q1025
RJCC 230330Z 18014KT 9999 FEW030 BKN/// 12/02 Q1025
RJCC 230300Z 19011KT 160V220 9999 FEW030 BKN/// 13/02 Q1025 RMK 1CU030 A3029
RJCC 230230Z 18011KT 140V210 9999 FEW030 BKN/// 12/02 Q1026
RJCC 230200Z 17010KT 9999 FEW030 BKN/// 12/02 Q1026 RMK 1CU030 A3031
RJCC 230130Z 16010KT 9999 FEW030 BKN/// 12/02 Q1026
RJCC 230100Z 17010KT 9999 FEW030 BKN/// 11/01 Q1026
RJCC 230030Z 19009KT 150V230 9999 FEW030 BKN/// 11/01 Q1026
RJCC 230000Z 17009KT 130V210 9999 FEW030 BKN/// 11/01 Q1027
RJCC 222330Z 16007KT CAVOK 09/01 Q1027 RMK A3033
RJCC 222300Z 17009KT 9999 FEW015 BKN/// 08/01 Q1027
RJCC 222230Z 16008KT 9999 FEW015 BKN/// 07/02 Q1027
RJCC 222200Z 16004KT 9999 FEW015 BKN/// 05/02 Q1027 RMK 1ST015 A3034
RJCC 222130Z 14004KT 9999 FEW010 BKN/// 04/02 Q1027
RJCC 222100Z 15003KT 9999 BCFG FEW010 BKN/// 02/01 Q1027 RMK 1ST010 A3033
RJCC 222042Z 15003KT 9999 R19R/P2000N R19L/0800VP2000U BCFG FEW010 BKN/// 01/01 Q1027 RMK 1ST010 A3033
RJCC 222030Z 15003KT 9999 R19R/P2000N R19L/0550VP2000U BCFG FEW010 BKN/// 01/00 Q1026
RJCC 222025Z 16003KT 9999 R19R/P2000N R19L/0550VP2000D PRFG FEW010 BKN/// 01/00 Q1026 RMK 1ST010 A3032 1500E FG NE-SE
RJCC 222000Z 14002KT 9999 R19R/P2000N R19L/P2000N PRFG FEW010 BKN/// 00/00 Q1026 RMK 1ST010 A3032 1500E FG NE-SE
RJCC 221930Z 13002KT 9999 R19R/P2000N R19L/P2000N PRFG FEW010 BKN/// 01/01 Q1026
RJCC 221900Z 12002KT 9999 FEW010 BKN/// 02/01 Q1026 RMK 1ST010 A3031
RJCC 221830Z 11003KT 9999 FEW010 BKN/// 02/01 Q1026 RMK 1ST010 A3030
RJCC 221800Z 16006KT 9999 FEW010 SCT/// 03/02 Q1025 RMK 1ST010 A3028
RJCC 221730Z 15006KT 9999 FEW010 SCT017 04/02 Q1025 RMK 1ST010 4ST017 A3028
RJCC 221700Z 15007KT 9999 FEW010 SCT015 BKN017 04/03 Q1025 RMK 1ST010 4ST015 6ST017 A3028
RJCC 221630Z 17005KT 9999 FEW010 BKN015 04/03 Q1025 RMK 1ST010 6ST015 A3028
RJCC 221600Z 17005KT 9999 FEW010 BKN015 04/03 Q1025 RMK 1ST010 7ST015 A3029
RJCC 221530Z 17004KT 9999 FEW010 BKN014 04/03 Q1025 RMK 1ST010 7ST014 A3028
RJCC 221500Z 16003KT 8000 FEW008 BKN013 BKN/// 03/02 Q1025
RJCC 221430Z 16003KT 9999 FEW010 BKN/// 04/03 Q1025
RJCC 221400Z 16003KT 9999 FEW030 BKN/// 04/02 Q1024 RMK 1CU030 A3026
RJCC 221330Z VRB02KT 9999 FEW030 BKN/// 04/03 Q1024
RJCC 221300Z 14003KT 090V170 9999 FEW030 BKN/// 05/03 Q1024
RJCC 221230Z 14003KT 110V180 9999 FEW030 BKN/// 05/03 Q1024 RMK 1CU030 A3025